createdAt,value
2022-08-23T00:01:51.060Z,1.27
2022-08-23T00:04:23.125Z,1.75
2022-08-23T00:06:59.628Z,1.40
2022-08-23T00:09:27.550Z,1.55
2022-08-23T00:12:04.942Z,1.77
2022-08-23T00:14:34.281Z,1.40
2022-08-23T00:17:12.314Z,1.67
2022-08-23T00:19:58.783Z,1.60
2022-08-23T00:22:25.385Z,1.48
2022-08-23T00:24:51.977Z,1.58
2022-08-23T00:27:18.477Z,1.50
2022-08-23T00:29:53.733Z,1.60
2022-08-23T00:32:26.789Z,1.55
2022-08-23T00:34:53.710Z,1.50
2022-08-23T00:37:21.640Z,1.60
2022-08-23T00:39:48.223Z,1.67
2022-08-23T00:42:50.017Z,1.58
2022-08-23T00:45:51.712Z,1.80
2022-08-23T00:48:18.253Z,1.52
2022-08-23T00:50:53.197Z,1.83
2022-08-23T00:53:23.522Z,1.60
2022-08-23T00:55:53.250Z,1.75
2022-08-23T00:58:21.206Z,1.52
2022-08-23T01:00:50.245Z,1.88
2022-08-23T01:03:17.997Z,1.75
2022-08-23T01:06:11.596Z,1.60
2022-08-23T01:08:41.970Z,1.40
2022-08-23T01:11:16.128Z,1.63
2022-08-23T01:13:47.347Z,1.65
2022-08-23T01:16:33.741Z,1.25
2022-08-23T01:19:02.678Z,2.10
2022-08-23T01:21:41.387Z,1.65
2022-08-23T01:24:10.477Z,1.40
2022-08-23T01:26:48.006Z,1.58
2022-08-23T01:29:16.890Z,1.30
2022-08-23T01:31:43.825Z,1.65
2022-08-23T01:34:13.813Z,1.70
2022-08-23T01:36:43.497Z,1.80
2022-08-23T01:39:10.305Z,1.75
2022-08-23T01:41:38.875Z,1.70
2022-08-23T01:44:06.594Z,1.60
2022-08-23T01:46:33.305Z,1.80
2022-08-23T01:48:59.972Z,2.08
2022-08-23T01:51:26.613Z,1.80
2022-08-23T01:53:53.174Z,2.08
2022-08-23T01:56:21.472Z,2.13
2022-08-23T01:59:05.018Z,1.70
2022-08-23T02:01:31.853Z,1.83
2022-08-23T02:04:04.526Z,1.45
2022-08-23T02:06:32.164Z,1.60
2022-08-23T02:09:01.237Z,1.75
2022-08-23T02:11:38.404Z,1.50
2022-08-23T02:14:08.467Z,1.85
2022-08-23T02:16:43.875Z,2.00
2022-08-23T02:19:25.473Z,1.73
2022-08-23T02:21:53.243Z,1.70
2022-08-23T02:24:22.883Z,1.80
2022-08-23T02:26:56.713Z,1.85
2022-08-23T02:29:25.805Z,1.83
2022-08-23T02:31:52.660Z,1.85
2022-08-23T02:34:20.052Z,2.13
2022-08-23T02:36:47.243Z,1.90
2022-08-23T02:39:18.415Z,1.90
2022-08-23T02:41:44.964Z,1.70
2022-08-23T02:44:12.647Z,1.60
2022-08-23T02:46:40.513Z,2.00
2022-08-23T02:49:07.540Z,1.83
2022-08-23T02:51:34.587Z,1.73
2022-08-23T02:54:01.484Z,1.98
2022-08-23T02:56:28.308Z,1.90
2022-08-23T02:58:55.059Z,2.50
2022-08-23T03:01:28.876Z,2.40
2022-08-23T03:03:56.764Z,2.53
2022-08-23T03:06:24.524Z,2.58
2022-08-23T03:08:53.585Z,2.05
2022-08-23T03:11:21.790Z,2.60
2022-08-23T03:13:49.869Z,2.63
2022-08-23T03:16:17.125Z,2.40
2022-08-23T03:18:44.118Z,2.25
2022-08-23T03:21:11.556Z,2.05
2022-08-23T03:23:39.721Z,2.30
2022-08-23T03:26:09.126Z,2.20
2022-08-23T03:28:37.201Z,1.98
2022-08-23T03:31:04.481Z,2.10
2022-08-23T03:33:31.089Z,2.22
2022-08-23T03:36:02.121Z,2.15
2022-08-23T03:38:28.938Z,2.05
2022-08-23T03:40:55.625Z,2.10
2022-08-23T03:43:22.661Z,2.10
2022-08-23T03:45:49.365Z,2.17
2022-08-23T03:48:16.716Z,1.73
2022-08-23T03:50:43.622Z,2.08
2022-08-23T03:53:12.264Z,2.00
2022-08-23T03:55:42.459Z,2.10
2022-08-23T03:58:10.699Z,1.83
2022-08-23T04:00:37.553Z,2.60
2022-08-23T04:03:05.717Z,2.30
2022-08-23T04:05:32.277Z,1.90
2022-08-23T04:07:59.174Z,1.92
2022-08-23T04:10:25.980Z,1.85
2022-08-23T04:13:04.984Z,2.00
2022-08-23T04:15:31.513Z,1.67
2022-08-23T04:18:02.354Z,1.85
2022-08-23T04:20:29.204Z,1.70
2022-08-23T04:22:56.222Z,2.05
2022-08-23T04:25:34.996Z,2.10
2022-08-23T04:28:03.148Z,2.13
2022-08-23T04:30:30.140Z,2.10
2022-08-23T04:32:57.430Z,1.92
2022-08-23T04:35:25.554Z,2.05
2022-08-23T04:37:52.946Z,1.80
2022-08-23T04:40:37.813Z,2.70
2022-08-23T04:43:04.666Z,2.17
2022-08-23T04:45:32.647Z,1.75
2022-08-23T04:47:59.490Z,1.77
2022-08-23T04:50:26.258Z,1.70
2022-08-23T04:52:52.894Z,1.83
2022-08-23T04:55:19.378Z,2.20
2022-08-23T04:57:46.422Z,1.70
2022-08-23T05:00:14.766Z,2.40
2022-08-23T05:02:41.368Z,1.80
2022-08-23T05:05:11.127Z,1.90
2022-08-23T05:07:42.415Z,1.70
2022-08-23T05:10:13.006Z,1.90
2022-08-23T05:12:40.371Z,2.00
2022-08-23T05:15:09.626Z,2.03
2022-08-23T05:17:36.894Z,2.17
2022-08-23T05:20:05.765Z,1.90
2022-08-23T05:22:39.249Z,2.53
2022-08-23T05:25:06.365Z,2.53
2022-08-23T05:27:33.692Z,1.95
2022-08-23T05:30:00.710Z,1.60
2022-08-23T05:32:31.510Z,2.70
2022-08-23T05:34:59.943Z,1.73
2022-08-23T05:37:26.490Z,1.70
2022-08-23T05:39:53.091Z,1.88
2022-08-23T05:42:19.692Z,2.28
2022-08-23T05:44:46.237Z,1.88
2022-08-23T05:47:15.745Z,1.83
2022-08-23T05:49:43.168Z,2.08
2022-08-23T05:52:12.897Z,2.00
2022-08-23T05:54:39.477Z,2.00
2022-08-23T05:57:06.206Z,1.85
2022-08-23T05:59:33.097Z,1.63
2022-08-23T06:01:59.712Z,1.80
2022-08-23T06:04:26.292Z,2.50
2022-08-23T06:06:53.877Z,1.95
2022-08-23T06:09:20.517Z,2.40
2022-08-23T06:11:48.379Z,1.80
2022-08-23T06:14:15.685Z,2.00
2022-08-23T06:16:45.881Z,1.88
2022-08-23T06:19:13.724Z,2.03
2022-08-23T06:21:41.149Z,2.25
2022-08-23T06:24:08.552Z,1.73
2022-08-23T06:26:39.620Z,2.03
2022-08-23T06:29:12.885Z,2.00
2022-08-23T06:31:48.081Z,2.60
2022-08-23T06:34:18.412Z,2.00
2022-08-23T06:36:47.816Z,1.98
2022-08-23T06:39:16.185Z,2.00
2022-08-23T06:41:43.194Z,1.88
2022-08-23T06:44:10.842Z,1.92
2022-08-23T06:46:38.672Z,1.70
2022-08-23T06:49:07.705Z,2.25
2022-08-23T06:51:36.969Z,2.15
2022-08-23T06:54:08.246Z,2.40
2022-08-23T06:56:37.157Z,1.80
2022-08-23T06:59:06.409Z,2.00
2022-08-23T07:01:47.618Z,1.77
2022-08-23T07:04:21.716Z,1.73
2022-08-23T07:06:48.593Z,1.83
2022-08-23T07:09:15.853Z,1.70
2022-08-23T07:11:42.834Z,1.65
2022-08-23T07:14:12.939Z,1.50
2022-08-23T07:16:48.150Z,2.30
2022-08-23T07:19:15.758Z,1.55
2022-08-23T07:21:43.885Z,1.67
2022-08-23T07:24:13.901Z,1.48
2022-08-23T07:26:42.913Z,1.52
2022-08-23T07:29:11.538Z,1.60
2022-08-23T07:31:45.800Z,1.80
2022-08-23T07:34:12.872Z,1.58
2022-08-23T07:36:42.219Z,1.88
2022-08-23T07:39:10.081Z,1.73
2022-08-23T07:41:38.794Z,1.85
2022-08-23T07:44:08.792Z,1.90
2022-08-23T07:46:37.758Z,1.88
2022-08-23T07:49:05.029Z,1.83
2022-08-23T07:51:33.544Z,1.50
2022-08-23T07:54:02.940Z,1.85
2022-08-23T07:56:29.520Z,1.67
2022-08-23T07:59:00.508Z,1.73
2022-08-23T08:01:30.426Z,1.90
2022-08-23T08:03:59.327Z,2.42
2022-08-23T08:07:04.707Z,1.67
2022-08-23T08:09:35.582Z,1.52
2022-08-23T08:12:02.129Z,1.63
2022-08-23T08:14:28.714Z,1.95
2022-08-23T08:16:58.612Z,1.52
2022-08-23T08:19:25.476Z,1.73
2022-08-23T08:21:52.095Z,1.83
2022-08-23T08:24:19.168Z,1.90
2022-08-23T08:26:46.565Z,1.73
2022-08-23T08:29:14.262Z,1.90
2022-08-23T08:31:44.080Z,2.00
2022-08-23T08:34:11.203Z,1.60
2022-08-23T08:36:49.314Z,1.50
2022-08-23T08:39:19.961Z,2.03
2022-08-23T08:42:05.576Z,1.50
2022-08-23T08:44:54.324Z,1.70
2022-08-23T08:47:33.424Z,1.60
2022-08-23T08:50:02.616Z,1.85
2022-08-23T08:52:36.805Z,1.70
2022-08-23T08:55:22.461Z,1.88
2022-08-23T08:57:49.856Z,1.83
2022-08-23T09:00:23.612Z,1.70
2022-08-23T09:02:51.427Z,1.73
2022-08-23T09:05:24.560Z,1.70
2022-08-23T09:08:09.500Z,1.45
2022-08-23T09:10:50.864Z,1.55
2022-08-23T09:13:41.065Z,1.42
2022-08-23T09:16:31.974Z,2.15
2022-08-23T09:19:01.607Z,1.65
2022-08-23T09:21:31.652Z,1.50
2022-08-23T09:24:00.912Z,1.40
2022-08-23T09:26:30.806Z,1.45
2022-08-23T09:29:25.390Z,1.63
2022-08-23T09:32:06.122Z,1.40
2022-08-23T09:34:32.810Z,1.17
2022-08-23T09:37:09.825Z,1.30
2022-08-23T09:39:39.389Z,1.27
2022-08-23T09:42:27.414Z,1.20
2022-08-23T09:44:54.558Z,1.17
2022-08-23T09:47:31.734Z,1.10
2022-08-23T09:50:08.022Z,0.95
2022-08-23T09:52:37.965Z,0.93
2022-08-23T09:55:09.532Z,1.00
2022-08-23T09:57:37.253Z,0.88
2022-08-23T10:00:16.133Z,0.82
2022-08-23T10:02:42.957Z,0.80
2022-08-23T10:05:15.448Z,0.82
2022-08-23T10:07:45.440Z,1.00
2022-08-23T10:10:43.786Z,0.98
2022-08-23T10:16:49.816Z,0.77
2022-08-23T10:19:28.367Z,0.90
2022-08-23T10:21:57.674Z,0.60
2022-08-23T10:24:54.245Z,0.60
2022-08-23T10:28:21.310Z,0.90
2022-08-23T10:30:56.839Z,0.60
2022-08-23T10:33:46.622Z,0.60
2022-08-23T10:36:25.986Z,0.70
2022-08-23T10:38:58.485Z,0.70
2022-08-23T10:41:51.158Z,0.80
2022-08-23T10:44:24.308Z,1.00
2022-08-23T10:47:05.458Z,0.70
2022-08-23T10:49:36.290Z,0.80
2022-08-23T10:52:05.182Z,0.80
2022-08-23T10:54:59.558Z,0.60
2022-08-23T10:57:35.730Z,0.60
2022-08-23T11:02:42.956Z,1.20
2022-08-23T11:05:29.022Z,0.98
2022-08-23T11:08:06.567Z,0.90
2022-08-23T11:10:41.767Z,0.80
2022-08-23T11:13:27.035Z,1.17
2022-08-23T11:16:07.233Z,0.90
2022-08-23T11:18:33.922Z,0.82
2022-08-23T11:21:07.699Z,0.68
2022-08-23T11:23:41.913Z,0.80
2022-08-23T11:26:36.159Z,0.80
2022-08-23T11:29:05.938Z,0.77
2022-08-23T11:31:37.826Z,0.70
2022-08-23T11:34:29.666Z,0.73
2022-08-23T11:37:22.071Z,0.93
2022-08-23T11:39:58.101Z,0.80
2022-08-23T11:45:27.996Z,0.70
2022-08-23T11:48:19.377Z,0.90
2022-08-23T11:51:06.285Z,0.70
2022-08-23T11:53:49.612Z,0.63
2022-08-23T11:56:33.731Z,0.70
2022-08-23T11:59:00.417Z,1.75
2022-08-23T12:01:36.360Z,0.68
2022-08-23T12:04:10.966Z,0.70
2022-08-23T12:06:43.216Z,0.85
2022-08-23T12:09:20.349Z,0.80
2022-08-23T12:11:55.972Z,0.85
2022-08-23T12:14:31.571Z,0.70
2022-08-23T12:17:04.512Z,1.00
2022-08-23T12:19:40.505Z,0.73
2022-08-23T12:22:14.357Z,0.93
2022-08-23T12:24:52.457Z,0.70
2022-08-23T12:27:45.772Z,0.77
2022-08-23T12:30:22.390Z,0.75
2022-08-23T12:32:54.341Z,1.40
2022-08-23T12:35:48.817Z,0.90
2022-08-23T12:38:24.327Z,1.15
2022-08-23T12:40:54.544Z,0.90
2022-08-23T12:43:23.400Z,0.65
2022-08-23T12:45:56.613Z,0.80
2022-08-23T12:48:26.944Z,0.80
2022-08-23T12:51:08.349Z,0.80
2022-08-23T12:53:44.721Z,0.60
2022-08-23T12:56:19.259Z,1.27
2022-08-23T12:58:52.039Z,1.00
2022-08-23T13:01:30.159Z,0.80
2022-08-23T13:04:04.276Z,0.88
2022-08-23T13:06:36.941Z,0.80
2022-08-23T13:09:17.830Z,0.80
2022-08-23T13:11:46.137Z,0.80
2022-08-23T13:14:31.975Z,0.73
2022-08-23T13:17:21.692Z,0.80
2022-08-23T13:19:51.225Z,0.77
2022-08-23T13:22:26.797Z,0.60
2022-08-23T13:25:26.781Z,0.80
2022-08-23T13:27:47.932Z,0.70
2022-08-23T13:30:14.449Z,0.80
2022-08-23T13:32:41.781Z,0.77
2022-08-23T13:35:36.609Z,1.10
2022-08-23T13:38:21.287Z,0.90
2022-08-23T13:40:56.255Z,0.90
2022-08-23T13:43:31.971Z,0.70
2022-08-23T13:46:09.569Z,0.80
2022-08-23T13:48:37.639Z,0.70
2022-08-23T13:51:25.913Z,0.80
2022-08-23T13:53:55.208Z,0.93
2022-08-23T13:56:22.850Z,1.08
2022-08-23T13:59:02.634Z,0.98
2022-08-23T14:01:29.663Z,1.05
2022-08-23T14:03:56.373Z,1.33
2022-08-23T14:06:25.608Z,0.85
2022-08-23T14:08:52.232Z,0.90
2022-08-23T14:11:19.959Z,0.82
2022-08-23T14:13:48.659Z,0.73
2022-08-23T14:16:40.055Z,0.90
2022-08-23T14:19:19.198Z,0.80
2022-08-23T14:21:56.311Z,0.82
2022-08-23T14:24:22.838Z,0.90
2022-08-23T14:26:52.261Z,0.90
2022-08-23T14:29:22.684Z,1.00
2022-08-23T14:31:51.521Z,0.70
2022-08-23T14:34:18.388Z,0.70
2022-08-23T14:39:31.756Z,0.80
2022-08-23T14:41:58.667Z,0.70
2022-08-23T14:44:28.984Z,0.70
2022-08-23T14:46:58.224Z,0.95
2022-08-23T14:49:24.843Z,1.00
2022-08-23T14:51:51.459Z,1.02
2022-08-23T14:54:22.669Z,1.15
2022-08-23T14:56:49.883Z,0.90
2022-08-23T14:59:19.864Z,0.75
2022-08-23T15:01:48.719Z,0.93
2022-08-23T15:04:23.006Z,0.80
2022-08-23T15:07:16.287Z,0.70
2022-08-23T15:09:36.760Z,0.77
2022-08-23T15:14:50.247Z,0.82
2022-08-23T15:17:16.868Z,0.80
2022-08-23T15:19:44.072Z,0.77
2022-08-23T15:22:15.841Z,0.80
2022-08-23T15:24:47.867Z,0.70
2022-08-23T15:27:14.426Z,0.70
2022-08-23T15:29:40.952Z,0.80
2022-08-23T15:32:07.834Z,0.90
2022-08-23T15:34:37.000Z,1.00
2022-08-23T15:37:06.686Z,0.88
2022-08-23T15:39:36.041Z,0.82
2022-08-23T15:42:02.600Z,1.10
2022-08-23T15:44:29.193Z,0.77
2022-08-23T15:46:58.519Z,1.23
2022-08-23T15:49:29.954Z,0.90
2022-08-23T15:51:58.348Z,0.90
2022-08-23T15:54:24.954Z,0.93
2022-08-23T15:56:53.346Z,0.88
2022-08-23T15:59:21.645Z,0.77
2022-08-23T16:01:50.991Z,1.05
2022-08-23T16:04:18.629Z,0.80
2022-08-23T16:06:48.252Z,0.90
2022-08-23T16:09:21.233Z,1.02
2022-08-23T16:11:48.049Z,0.75
2022-08-23T16:14:17.870Z,1.23
2022-08-23T16:16:46.809Z,1.13
2022-08-23T16:19:16.628Z,1.05
2022-08-23T16:21:46.214Z,0.88
2022-08-23T16:24:12.749Z,1.00
2022-08-23T16:26:42.475Z,0.80
2022-08-23T16:29:17.923Z,0.77
2022-08-23T16:31:45.955Z,0.95
2022-08-23T16:34:21.903Z,1.02
2022-08-23T16:36:55.298Z,1.02
2022-08-23T16:39:22.407Z,1.00
2022-08-23T16:41:52.975Z,0.80
2022-08-23T16:44:19.609Z,0.85
2022-08-23T16:46:46.569Z,0.70
2022-08-23T16:49:16.345Z,0.80
2022-08-23T16:51:43.642Z,0.82
2022-08-23T16:54:10.689Z,0.93
2022-08-23T16:56:39.397Z,0.90
2022-08-23T16:59:08.241Z,0.88
2022-08-23T17:01:46.265Z,0.80
2022-08-23T17:04:12.930Z,0.90
2022-08-23T17:06:39.558Z,1.10
2022-08-23T17:09:06.733Z,1.08
2022-08-23T17:11:33.327Z,0.80
2022-08-23T17:14:05.319Z,0.93
2022-08-23T17:16:32.799Z,0.70
2022-08-23T17:18:59.448Z,1.20
2022-08-23T17:21:26.657Z,1.10
2022-08-23T17:23:53.303Z,0.90
2022-08-23T17:26:20.305Z,0.98
2022-08-23T17:28:46.930Z,0.90
2022-08-23T17:31:14.332Z,0.93
2022-08-23T17:33:41.029Z,0.93
2022-08-23T17:36:08.353Z,1.17
2022-08-23T17:38:35.597Z,0.90
2022-08-23T17:41:02.240Z,1.30
2022-08-23T17:43:29.286Z,1.77
2022-08-23T17:45:56.124Z,1.27
2022-08-23T17:48:22.735Z,1.00
2022-08-23T17:50:50.155Z,1.00
2022-08-23T17:53:18.384Z,0.80
2022-08-23T17:55:45.110Z,0.90
2022-08-23T17:58:13.466Z,1.00
2022-08-23T18:00:40.675Z,1.50
2022-08-23T18:03:07.695Z,1.10
2022-08-23T18:05:37.152Z,1.00
2022-08-23T18:08:04.124Z,0.90
2022-08-23T18:10:31.041Z,1.38
2022-08-23T18:12:58.696Z,0.90
2022-08-23T18:15:27.096Z,0.90
2022-08-23T18:17:57.544Z,0.82
2022-08-23T18:20:26.686Z,1.00
2022-08-23T18:22:54.821Z,0.95
2022-08-23T18:25:21.643Z,0.85
2022-08-23T18:28:06.420Z,1.00
2022-08-23T18:30:35.451Z,1.42
2022-08-23T18:33:02.401Z,1.27
2022-08-23T18:35:30.701Z,1.40
2022-08-23T18:37:57.952Z,1.35
2022-08-23T18:40:26.309Z,1.20
2022-08-23T18:42:53.464Z,1.17
2022-08-23T18:45:20.297Z,1.55
2022-08-23T18:47:48.449Z,2.10
2022-08-23T18:50:18.407Z,1.70
2022-08-23T18:52:45.328Z,1.00
2022-08-23T18:55:11.876Z,1.40
2022-08-23T18:57:39.071Z,1.27
2022-08-23T19:00:08.705Z,1.30
2022-08-23T19:02:35.689Z,1.58
2022-08-23T19:05:03.329Z,1.30
2022-08-23T19:07:30.087Z,1.23
2022-08-23T19:09:56.709Z,1.63
2022-08-23T19:12:23.397Z,1.77
2022-08-23T19:14:50.066Z,1.65
2022-08-23T19:17:16.740Z,1.25
2022-08-23T19:22:40.331Z,1.23
2022-08-23T19:25:07.918Z,1.00
2022-08-23T19:28:11.294Z,1.30
2022-08-23T19:33:14.986Z,1.13
2022-08-23T19:35:42.479Z,1.48
2022-08-23T19:38:18.106Z,1.50
2022-08-23T19:40:44.882Z,1.35
2022-08-23T19:43:11.575Z,1.17
2022-08-23T19:45:39.007Z,1.00
2022-08-23T19:48:05.723Z,1.52
2022-08-23T19:50:33.303Z,1.35
2022-08-23T19:52:59.973Z,1.38
2022-08-23T19:55:27.627Z,1.00
2022-08-23T19:57:55.832Z,1.27
2022-08-23T20:00:23.805Z,1.63
2022-08-23T20:02:50.595Z,1.05
2022-08-23T20:05:18.224Z,1.00
2022-08-23T20:07:45.544Z,1.45
2022-08-23T20:10:13.808Z,1.33
2022-08-23T20:12:41.864Z,1.27
2022-08-23T20:15:13.545Z,1.20
2022-08-23T20:17:41.341Z,1.27
2022-08-23T20:20:10.228Z,1.45
2022-08-23T20:22:55.412Z,1.17
2022-08-23T20:25:22.529Z,1.10
2022-08-23T20:27:49.243Z,1.10
2022-08-23T20:30:15.819Z,1.77
2022-08-23T20:32:43.904Z,1.15
2022-08-23T20:35:11.582Z,1.10
2022-08-23T20:37:41.747Z,1.13
2022-08-23T20:40:12.247Z,1.40
2022-08-23T20:42:39.108Z,1.40
2022-08-23T20:45:11.604Z,1.50
2022-08-23T20:47:40.475Z,0.93
2022-08-23T20:50:07.816Z,1.23
2022-08-23T20:52:34.950Z,1.27
2022-08-23T20:55:01.901Z,1.50
2022-08-23T20:57:36.779Z,1.23
2022-08-23T21:02:32.059Z,0.85
2022-08-23T21:04:58.716Z,1.00
2022-08-23T21:07:25.720Z,1.10
2022-08-23T21:09:54.704Z,1.27
2022-08-23T21:12:21.565Z,1.23
2022-08-23T21:14:48.222Z,1.20
2022-08-23T21:17:14.817Z,1.10
2022-08-23T21:19:44.178Z,1.30
2022-08-23T21:22:10.913Z,1.13
2022-08-23T21:24:38.520Z,1.40
2022-08-23T21:27:09.390Z,1.20
2022-08-23T21:29:36.477Z,0.90
2022-08-23T21:32:03.504Z,1.40
2022-08-23T21:34:30.167Z,1.17
2022-08-23T21:37:06.114Z,1.30
2022-08-23T21:39:32.808Z,1.50
2022-08-23T21:41:59.507Z,1.00
2022-08-23T21:44:29.122Z,1.13
2022-08-23T21:46:55.646Z,1.40
2022-08-23T21:49:23.235Z,1.20
2022-08-23T21:51:50.375Z,1.00
2022-08-23T21:54:18.423Z,1.10
2022-08-23T21:56:46.013Z,1.20
2022-08-23T21:59:14.998Z,1.08
2022-08-23T22:01:42.898Z,1.30
2022-08-23T22:04:11.761Z,1.25
2022-08-23T22:06:38.999Z,1.10
2022-08-23T22:09:09.049Z,1.88
2022-08-23T22:11:40.905Z,1.10
2022-08-23T22:14:09.236Z,1.05
2022-08-23T22:16:35.920Z,1.20
2022-08-23T22:19:02.438Z,1.20
2022-08-23T22:21:28.985Z,0.95
2022-08-23T22:24:02.072Z,1.30
2022-08-23T22:26:29.481Z,1.50
2022-08-23T22:28:56.081Z,1.08
2022-08-23T22:31:23.851Z,1.20
2022-08-23T22:33:50.453Z,1.30
2022-08-23T22:36:19.976Z,1.30
2022-08-23T22:38:47.711Z,1.10
2022-08-23T22:41:20.932Z,1.27
2022-08-23T22:43:47.661Z,1.08
2022-08-23T22:46:14.335Z,1.30
2022-08-23T22:48:40.950Z,1.13
2022-08-23T22:51:16.414Z,1.10
2022-08-23T22:54:04.913Z,1.15
2022-08-23T22:56:36.937Z,1.08
2022-08-23T22:59:03.736Z,1.27
2022-08-23T23:01:34.439Z,1.13
2022-08-23T23:04:03.068Z,1.40
2022-08-23T23:06:30.549Z,1.40
2022-08-23T23:08:57.125Z,1.13
2022-08-23T23:11:24.837Z,1.48
2022-08-23T23:13:51.465Z,1.50
2022-08-23T23:16:21.396Z,1.30
2022-08-23T23:19:08.757Z,1.33
2022-08-23T23:24:05.994Z,1.02
2022-08-23T23:26:32.633Z,1.48
2022-08-23T23:28:59.205Z,1.42
2022-08-23T23:31:25.846Z,2.10
2022-08-23T23:33:52.482Z,1.35
2022-08-23T23:36:19.034Z,1.30
2022-08-23T23:38:46.367Z,1.40
2022-08-23T23:41:13.510Z,1.55
2022-08-23T23:43:40.752Z,1.30
2022-08-23T23:46:11.018Z,1.35
2022-08-23T23:48:38.919Z,1.40
2022-08-23T23:51:16.663Z,1.30
2022-08-23T23:53:43.524Z,1.05
2022-08-23T23:56:12.579Z,1.58
2022-08-23T23:58:39.111Z,1.23
